Time;durP1;ratioP1;P1;durP2;ratioP2;P2;SDS_P1;SDS_P2;PMS_P1;PMS_P2;Temp;Humidity;BMP_temperature;BMP_pressure;BME280_temperature;BME280_humidity;BME280_pressure;Samples;Min_cycle;Max_cycle;Signal;HPM_P1;HPM_P2
2022/08/31 00:05:16;;;;;;;20.58;19.10;;;16.60;99.90;;;;;;5024834;28;20033;-78
2022/08/31 00:07:42;;;;;;;21.73;20.08;;;16.60;99.90;;;;;;5010522;28;20033;-78
2022/08/31 00:10:13;;;;;;;20.73;19.27;;;16.70;99.90;;;;;;5019651;28;20038;-78
2022/08/31 00:12:44;;;;;;;21.33;20.02;;;16.80;99.90;;;;;;5026982;28;20029;-78
2022/08/31 00:15:12;;;;;;;21.85;20.30;;;16.80;99.90;;;;;;5013695;28;20036;-78
2022/08/31 00:17:39;;;;;;;23.20;21.60;;;16.80;99.90;;;;;;5024088;28;20032;-78
2022/08/31 00:20:07;;;;;;;24.63;22.90;;;16.90;99.90;;;;;;5026631;28;20033;-78
2022/08/31 00:22:32;;;;;;;22.95;21.42;;;16.80;99.90;;;;;;5025648;28;20056;-79
2022/08/31 00:24:58;;;;;;;23.10;21.60;;;16.80;99.90;;;;;;5026703;28;20489;-78
2022/08/31 00:27:24;;;;;;;24.65;23.17;;;16.90;99.90;;;;;;5027971;28;20570;-78
2022/08/31 00:29:50;;;;;;;25.98;24.25;;;16.90;99.90;;;;;;5025488;28;20477;-78
2022/08/31 00:32:15;;;;;;;22.83;21.17;;;16.90;99.90;;;;;;5026472;28;20025;-79
2022/08/31 00:34:41;;;;;;;38.70;36.50;;;16.90;99.90;;;;;;5026282;28;20545;-78
2022/08/31 00:37:06;;;;;;;26.52;24.80;;;16.80;99.90;;;;;;5022083;28;20116;-78
2022/08/31 00:39:32;;;;;;;39.15;37.30;;;16.70;99.90;;;;;;5027678;28;20380;-78
2022/08/31 00:41:58;;;;;;;31.48;29.80;;;16.70;99.90;;;;;;5025586;28;20532;-78
2022/08/31 00:44:24;;;;;;;36.03;34.05;;;16.80;99.90;;;;;;5025789;28;20508;-78
2022/08/31 00:46:49;;;;;;;42.08;39.83;;;16.80;99.90;;;;;;5030637;28;20028;-78
2022/08/31 00:49:30;;;;;;;37.10;35.13;;;16.70;99.90;;;;;;5029247;28;20072;-78
2022/08/31 00:52:05;;;;;;;38.50;35.22;;;16.60;99.90;;;;;;5022725;28;20487;-78
2022/08/31 00:55:04;;;;;;;36.95;35.03;;;16.60;99.90;;;;;;5028517;28;20091;-78
2022/08/31 00:57:41;;;;;;;22.17;20.80;;;16.60;99.90;;;;;;5002811;28;20041;-79
2022/08/31 01:00:11;;;;;;;18.35;17.05;;;16.60;99.90;;;;;;5027751;28;20079;-78
2022/08/31 01:02:37;;;;;;;19.60;18.20;;;16.70;99.90;;;;;;5023121;28;20497;-79
2022/08/31 01:05:04;;;;;;;18.98;17.55;;;16.70;99.90;;;;;;5023359;28;20173;-78
2022/08/31 01:07:30;;;;;;;17.33;15.90;;;16.80;99.90;;;;;;5030612;28;20033;-78
2022/08/31 01:09:57;;;;;;;16.50;15.30;;;16.80;99.90;;;;;;5025486;28;20451;-78
2022/08/31 01:12:24;;;;;;;20.80;19.33;;;16.80;99.90;;;;;;5027197;28;20115;-78
2022/08/31 01:14:50;;;;;;;17.63;16.52;;;16.70;99.90;;;;;;5026758;28;20048;-78
2022/08/31 01:17:16;;;;;;;19.27;17.77;;;16.80;99.90;;;;;;5026200;28;20022;-78
2022/08/31 01:19:53;;;;;;;18.88;17.60;;;16.80;99.90;;;;;;5008801;28;20063;-79
2022/08/31 01:22:35;;;;;;;19.20;16.63;;;16.70;99.90;;;;;;5023950;28;20162;-78
2022/08/31 01:25:01;;;;;;;18.10;16.33;;;16.70;99.90;;;;;;5028633;28;20048;-79
2022/08/31 01:27:30;;;;;;;18.98;17.80;;;16.70;99.90;;;;;;5030485;28;20079;-78
2022/08/31 01:30:05;;;;;;;18.20;16.92;;;16.60;99.90;;;;;;5026029;28;20528;-78
2022/08/31 01:32:30;;;;;;;18.05;16.75;;;16.50;99.90;;;;;;5024427;28;20041;-79
2022/08/31 01:34:56;;;;;;;19.20;17.50;;;16.40;99.90;;;;;;5027825;28;20033;-79
2022/08/31 01:37:40;;;;;;;17.60;16.40;;;16.30;99.90;;;;;;5026615;28;20116;-78
2022/08/31 01:40:12;;;;;;;18.35;16.92;;;16.30;99.90;;;;;;5027816;28;20465;-79
2022/08/31 01:42:40;;;;;;;18.48;16.88;;;16.40;99.90;;;;;;5030645;28;20037;-79
2022/08/31 01:45:07;;;;;;;19.38;17.85;;;16.50;99.90;;;;;;5002225;28;20064;-78
2022/08/31 01:47:33;;;;;;;18.75;17.40;;;16.50;99.90;;;;;;5028129;28;20036;-78
2022/08/31 01:49:58;;;;;;;19.45;17.77;;;16.50;99.90;;;;;;5028515;28;20033;-78
2022/08/31 01:52:26;;;;;;;18.83;17.42;;;16.40;99.90;;;;;;5025289;28;20041;-78
2022/08/31 01:54:52;;;;;;;17.58;16.38;;;16.40;99.90;;;;;;5027171;28;20545;-78
2022/08/31 01:57:17;;;;;;;23.02;21.50;;;16.40;99.90;;;;;;5025296;28;20116;-78
2022/08/31 01:59:43;;;;;;;22.60;20.92;;;16.20;99.90;;;;;;5017213;28;20596;-78
2022/08/31 02:02:08;;;;;;;17.58;16.25;;;16.20;99.90;;;;;;5027997;28;20067;-79
2022/08/31 02:04:34;;;;;;;19.05;17.85;;;16.30;99.90;;;;;;5028236;28;20148;-78
2022/08/31 02:07:00;;;;;;;18.90;17.48;;;16.20;99.90;;;;;;5024500;28;20038;-79
2022/08/31 02:09:26;;;;;;;19.67;18.42;;;16.20;99.90;;;;;;5008505;28;20037;-79
2022/08/31 02:11:52;;;;;;;17.20;16.08;;;16.20;99.90;;;;;;5028405;28;20048;-78
2022/08/31 02:14:19;;;;;;;20.25;16.65;;;16.20;99.90;;;;;;5028296;28;20485;-78
2022/08/31 02:16:45;;;;;;;17.42;15.88;;;16.20;99.90;;;;;;5023054;28;20497;-78
2022/08/31 02:19:11;;;;;;;22.23;20.80;;;16.30;99.90;;;;;;5028016;28;20044;-79
2022/08/31 02:21:37;;;;;;;19.65;18.42;;;16.10;99.90;;;;;;5023835;28;20033;-78
2022/08/31 02:24:03;;;;;;;19.75;18.38;;;16.10;99.90;;;;;;5028783;28;20025;-78
2022/08/31 02:26:29;;;;;;;19.38;17.77;;;16.00;99.90;;;;;;5028530;28;20041;-78
2022/08/31 02:28:55;;;;;;;18.63;16.90;;;15.90;99.90;;;;;;5023070;28;20038;-78
2022/08/31 02:31:20;;;;;;;17.05;15.68;;;15.90;99.90;;;;;;5028279;28;20654;-78
2022/08/31 02:33:49;;;;;;;15.95;14.80;;;15.90;99.90;;;;;;5029206;28;20492;-78
2022/08/31 02:36:14;;;;;;;18.08;14.88;;;16.00;99.90;;;;;;5020428;28;20045;-79
2022/08/31 02:38:41;;;;;;;16.25;14.90;;;16.00;99.90;;;;;;5024704;28;20144;-78
2022/08/31 02:41:06;;;;;;;15.70;14.70;;;15.90;99.90;;;;;;5031524;28;20108;-78
2022/08/31 02:43:32;;;;;;;16.75;15.35;;;15.90;99.90;;;;;;5028763;28;20125;-78
2022/08/31 02:45:58;;;;;;;20.23;18.73;;;16.00;99.90;;;;;;5024721;28;20034;-78
2022/08/31 02:48:24;;;;;;;15.00;13.75;;;15.90;99.90;;;;;;5025328;28;20046;-78
2022/08/31 02:50:51;;;;;;;15.27;14.27;;;15.90;99.90;;;;;;5011447;28;20488;-78
2022/08/31 02:53:20;;;;;;;16.50;15.25;;;15.80;99.90;;;;;;5029153;28;20026;-78
2022/08/31 02:55:45;;;;;;;22.25;20.67;;;15.80;99.90;;;;;;5025583;28;20037;-78
2022/08/31 02:58:12;;;;;;;17.80;16.58;;;15.80;99.90;;;;;;4997383;28;20030;-78
2022/08/31 03:00:42;;;;;;;19.13;17.58;;;15.80;99.90;;;;;;5007419;28;20045;-78
2022/08/31 03:03:07;;;;;;;20.15;18.95;;;15.70;99.90;;;;;;5027870;28;20040;-78
2022/08/31 03:05:33;;;;;;;17.77;16.48;;;15.80;99.90;;;;;;5022696;28;20046;-78
2022/08/31 03:07:58;;;;;;;17.35;16.05;;;15.70;99.90;;;;;;5028465;28;20496;-78
2022/08/31 03:10:25;;;;;;;16.55;15.23;;;15.70;99.90;;;;;;5027955;28;20029;-78
2022/08/31 03:12:52;;;;;;;14.77;13.68;;;15.80;99.90;;;;;;5023170;28;20036;-78
2022/08/31 03:15:20;;;;;;;16.50;15.13;;;15.80;99.90;;;;;;5021835;28;20155;-78
2022/08/31 03:17:46;;;;;;;17.63;15.80;;;15.80;99.90;;;;;;5007089;28;20375;-78
2022/08/31 03:20:13;;;;;;;17.40;16.10;;;15.80;99.90;;;;;;5017849;28;20500;-78
2022/08/31 03:22:39;;;;;;;22.65;21.17;;;15.80;99.90;;;;;;5027414;28;20114;-78
2022/08/31 03:25:06;;;;;;;19.13;17.58;;;15.80;99.90;;;;;;5028869;28;20122;-78
2022/08/31 03:27:32;;;;;;;18.17;16.85;;;15.90;99.90;;;;;;5025451;28;20112;-78
2022/08/31 03:29:58;;;;;;;16.95;15.77;;;15.90;99.90;;;;;;5025124;28;20112;-78
2022/08/31 03:32:26;;;;;;;17.65;16.35;;;15.90;99.90;;;;;;5026082;28;20045;-78
2022/08/31 03:34:56;;;;;;;18.40;17.00;;;16.00;99.90;;;;;;5027857;28;20079;-78
2022/08/31 03:37:22;;;;;;;;;;;16.00;99.90;;;;;;5024393;28;20041;-78
2022/08/31 03:39:48;;;;;;;15.27;14.18;;;16.10;99.90;;;;;;5033757;28;19936;-78
2022/08/31 03:42:14;;;;;;;16.50;15.30;;;16.10;99.90;;;;;;5028503;28;20329;-78
2022/08/31 03:44:40;;;;;;;18.00;16.55;;;16.20;99.90;;;;;;5024843;28;20400;-78
2022/08/31 03:47:05;;;;;;;17.65;15.98;;;16.20;99.90;;;;;;5025381;28;20053;-78
2022/08/31 03:49:31;;;;;;;19.20;17.58;;;16.20;99.90;;;;;;5027379;28;20041;-78
2022/08/31 03:51:57;;;;;;;19.35;17.77;;;16.30;99.90;;;;;;5025634;28;20033;-79
2022/08/31 03:54:23;;;;;;;17.67;16.42;;;16.40;99.90;;;;;;5024508;28;20057;-78
2022/08/31 03:56:48;;;;;;;22.60;20.60;;;16.40;99.90;;;;;;5019737;28;20040;-78
2022/08/31 03:59:14;;;;;;;25.15;23.38;;;16.40;99.90;;;;;;5004127;28;20497;-78
2022/08/31 04:01:40;;;;;;;27.38;25.58;;;16.30;99.90;;;;;;5027585;28;20030;-78
2022/08/31 04:04:06;;;;;;;20.70;18.98;;;16.30;99.90;;;;;;5028004;28;20028;-78
2022/08/31 04:06:32;;;;;;;23.88;22.48;;;16.30;99.90;;;;;;5018527;28;20549;-78
2022/08/31 04:08:57;;;;;;;24.90;23.27;;;16.30;99.90;;;;;;5025324;28;20525;-78
2022/08/31 04:11:23;;;;;;;23.58;22.05;;;16.30;99.90;;;;;;5028269;28;20425;-78
2022/08/31 04:13:49;;;;;;;23.48;22.10;;;16.30;99.90;;;;;;5026765;28;20513;-78
2022/08/31 04:16:18;;;;;;;23.98;21.73;;;16.20;99.90;;;;;;5020640;28;20065;-78
2022/08/31 04:18:45;;;;;;;23.00;21.45;;;16.30;99.90;;;;;;5024184;28;20021;-78
2022/08/31 04:21:18;;;;;;;28.95;27.23;;;16.40;99.90;;;;;;5025580;28;20382;-79
2022/08/31 04:23:43;;;;;;;33.20;30.63;;;16.30;99.90;;;;;;5022369;28;20105;-78
2022/08/31 04:26:21;;;;;;;34.92;32.88;;;16.30;99.90;;;;;;5019466;28;20160;-78
2022/08/31 04:28:47;;;;;;;32.67;30.52;;;16.30;99.90;;;;;;5008907;28;20037;-78
2022/08/31 04:31:13;;;;;;;47.90;45.35;;;16.20;99.90;;;;;;5021633;28;20021;-78
2022/08/31 04:33:40;;;;;;;51.85;49.15;;;16.10;99.90;;;;;;5026641;28;20026;-78
2022/08/31 04:36:11;;;;;;;65.88;62.53;;;16.10;99.90;;;;;;5032186;28;20030;-78
2022/08/31 04:38:36;;;;;;;52.47;49.97;;;16.10;99.90;;;;;;5027126;28;20104;-78
2022/08/31 04:41:04;;;;;;;132.75;126.78;;;16.00;99.90;;;;;;5028056;28;20722;-78
2022/08/31 04:43:31;;;;;;;93.15;89.10;;;15.80;99.90;;;;;;5021451;28;20079;-78
2022/08/31 04:45:57;;;;;;;123.82;118.47;;;15.70;99.90;;;;;;5022803;28;20034;-79
2022/08/31 04:48:23;;;;;;;181.95;173.95;;;15.70;99.90;;;;;;5022652;28;20033;-78
2022/08/31 04:50:49;;;;;;;207.63;198.40;;;15.60;99.90;;;;;;5022633;28;20026;-79
2022/08/31 04:53:15;;;;;;;273.30;261.17;;;15.50;99.90;;;;;;5020475;28;20029;-78
2022/08/31 04:55:43;;;;;;;209.48;200.52;;;15.60;99.90;;;;;;5021548;28;20049;-79
2022/08/31 04:58:09;;;;;;;204.27;195.50;;;15.50;99.90;;;;;;5021706;28;20567;-78
2022/08/31 05:00:35;;;;;;;197.52;188.95;;;15.50;99.90;;;;;;5035947;28;20057;-79
2022/08/31 05:03:01;;;;;;;174.55;166.93;;;15.60;99.90;;;;;;5023101;28;20029;-79
2022/08/31 05:05:27;;;;;;;121.53;116.20;;;15.60;99.90;;;;;;5028230;28;20117;-79
2022/08/31 05:07:52;;;;;;;142.02;135.75;;;15.50;99.90;;;;;;5021124;28;20040;-79
2022/08/31 05:10:20;;;;;;;187.95;180.02;;;15.40;99.90;;;;;;5025279;28;20068;-79
2022/08/31 05:12:46;;;;;;;168.18;160.82;;;15.50;99.90;;;;;;5011238;28;20434;-80
2022/08/31 05:15:12;;;;;;;164.00;156.95;;;15.40;99.90;;;;;;5013016;28;20042;-79
2022/08/31 05:17:37;;;;;;;194.90;186.20;;;15.50;99.90;;;;;;5031247;28;20041;-79
2022/08/31 05:20:04;;;;;;;260.33;248.63;;;15.40;99.90;;;;;;5021521;28;20026;-79
2022/08/31 05:22:30;;;;;;;291.58;278.30;;;15.40;99.90;;;;;;5021414;28;20030;-79
2022/08/31 05:24:57;;;;;;;226.75;216.43;;;15.30;99.90;;;;;;5024344;28;20397;-79
2022/08/31 05:27:22;;;;;;;237.00;226.18;;;15.30;99.90;;;;;;5022459;28;20034;-79
2022/08/31 05:29:48;;;;;;;398.15;378.63;;;15.40;99.90;;;;;;5028832;28;20045;-76
2022/08/31 05:32:14;;;;;;;234.27;223.50;;;15.40;99.90;;;;;;5024528;28;20033;-76
2022/08/31 05:34:39;;;;;;;425.45;403.92;;;15.30;99.90;;;;;;5026616;28;20104;-76
2022/08/31 05:37:05;;;;;;;308.40;293.58;;;15.40;99.90;;;;;;5020493;28;20030;-76
2022/08/31 05:39:32;;;;;;;415.08;390.85;;;15.40;99.90;;;;;;5016115;28;20648;-82
2022/08/31 05:41:58;;;;;;;510.20;480.23;;;15.40;99.90;;;;;;5013287;28;20124;-79
2022/08/31 05:44:25;;;;;;;662.55;614.40;;;15.40;99.90;;;;;;5012463;28;20117;-76
2022/08/31 05:46:51;;;;;;;311.38;296.65;;;15.30;99.90;;;;;;5025627;28;20505;-76
2022/08/31 05:49:16;;;;;;;617.15;577.72;;;15.30;99.90;;;;;;5012552;28;20075;-76
2022/08/31 05:51:42;;;;;;;589.22;553.40;;;15.20;99.90;;;;;;5019742;28;20025;-76
2022/08/31 05:54:09;;;;;;;683.75;634.70;;;15.20;99.90;;;;;;5024347;28;20087;-81
2022/08/31 05:56:36;;;;;;;849.50;727.50;;;15.10;99.90;;;;;;5011623;28;20138;-81
2022/08/31 05:59:02;;;;;;;1138.68;888.55;;;15.10;99.90;;;;;;5021368;28;20175;-76
2022/08/31 06:01:30;;;;;;;1999.90;999.90;;;15.00;99.90;;;;;;5026315;28;20454;-77
2022/08/31 06:03:57;;;;;;;839.65;759.95;;;14.90;99.90;;;;;;5030296;28;20026;-77
2022/08/31 06:06:23;;;;;;;1765.43;892.42;;;15.00;99.90;;;;;;5030304;28;20095;-76
2022/08/31 06:08:50;;;;;;;1999.90;999.90;;;14.90;99.90;;;;;;5024520;28;20033;-77
2022/08/31 06:11:18;;;;;;;1815.60;833.53;;;15.00;99.90;;;;;;5024843;28;20038;-78
2022/08/31 06:13:45;;;;;;;1174.13;814.33;;;15.00;99.90;;;;;;5026899;28;20024;-78
2022/08/31 06:16:12;;;;;;;1286.63;914.50;;;14.90;99.90;;;;;;5029015;28;20049;-78
2022/08/31 06:18:39;;;;;;;1692.28;862.35;;;14.90;99.90;;;;;;5024969;28;20088;-77
2022/08/31 06:21:11;;;;;;;1512.18;809.88;;;14.90;99.90;;;;;;5024525;28;20520;-78
2022/08/31 06:23:41;;;;;;;892.38;809.95;;;14.80;99.90;;;;;;5020819;28;20440;-77
2022/08/31 06:26:11;;;;;;;1154.32;693.17;;;14.90;99.90;;;;;;5026819;28;20104;-76
2022/08/31 06:28:49;;;;;;;1044.13;719.10;;;14.90;99.90;;;;;;5028626;28;20029;-78
2022/08/31 06:31:23;;;;;;;1999.90;999.90;;;14.90;99.90;;;;;;5024672;28;20026;-77
2022/08/31 06:33:50;;;;;;;1999.90;999.90;;;14.90;99.90;;;;;;5028245;28;20481;-78
2022/08/31 06:36:19;;;;;;;1144.53;812.30;;;15.00;99.90;;;;;;5020213;28;20029;-78
2022/08/31 06:38:45;;;;;;;1006.05;743.40;;;15.00;99.90;;;;;;5044052;28;20054;-77
2022/08/31 06:41:17;;;;;;;1491.63;876.22;;;15.00;99.90;;;;;;5027252;28;20148;-77
2022/08/31 06:43:43;;;;;;;1989.85;984.67;;;15.00;99.90;;;;;;5023872;28;20033;-77
2022/08/31 06:46:10;;;;;;;1999.90;999.90;;;15.00;99.90;;;;;;5010862;28;20036;-77
2022/08/31 06:48:36;;;;;;;1999.90;999.90;;;15.00;99.90;;;;;;5029907;28;20056;-77
2022/08/31 06:51:03;;;;;;;1847.53;940.92;;;15.00;99.90;;;;;;5028237;28;20392;-78
2022/08/31 06:53:29;;;;;;;1862.00;880.65;;;15.00;99.90;;;;;;5023181;28;20044;-77
2022/08/31 06:55:55;;;;;;;1999.90;999.90;;;15.00;99.90;;;;;;5026463;28;20033;-77
2022/08/31 06:58:20;;;;;;;1999.90;999.90;;;15.10;99.90;;;;;;5029387;28;20037;-77
2022/08/31 07:00:47;;;;;;;1999.90;999.90;;;15.20;99.90;;;;;;5027504;28;20049;-77
2022/08/31 07:03:22;;;;;;;1999.90;999.90;;;15.20;99.90;;;;;;5024151;28;20099;-77
2022/08/31 07:05:49;;;;;;;1999.90;999.90;;;15.10;99.90;;;;;;5021361;28;20033;-78
2022/08/31 07:08:15;;;;;;;1999.90;999.90;;;15.20;99.90;;;;;;5023996;28;20397;-78
2022/08/31 07:10:41;;;;;;;1999.90;999.90;;;15.10;99.90;;;;;;5027892;28;20455;-77
2022/08/31 07:13:07;;;;;;;1999.90;999.90;;;15.30;99.90;;;;;;5029078;28;20033;-77
2022/08/31 07:15:32;;;;;;;1999.90;999.90;;;15.20;99.90;;;;;;5025166;28;20060;-77
2022/08/31 07:17:58;;;;;;;1999.90;999.90;;;15.20;99.90;;;;;;5027682;28;20037;-78
2022/08/31 07:20:23;;;;;;;1681.38;776.70;;;15.30;99.90;;;;;;5024341;28;20037;-78
2022/08/31 07:22:49;;;;;;;1999.90;999.90;;;15.20;99.90;;;;;;5022210;28;20034;-77
2022/08/31 07:25:16;;;;;;;1999.90;999.90;;;15.30;99.90;;;;;;5021735;28;20025;-78
2022/08/31 07:27:43;;;;;;;847.50;546.30;;;15.30;99.90;;;;;;5028865;28;20025;-78
2022/08/31 07:30:09;;;;;;;1700.78;922.15;;;15.20;99.90;;;;;;5024929;28;20034;-78
2022/08/31 07:32:37;;;;;;;1999.90;999.90;;;15.00;99.90;;;;;;5027314;28;20033;-77
2022/08/31 07:35:04;;;;;;;1999.90;999.90;;;15.00;99.90;;;;;;5024691;28;20168;-77
2022/08/31 07:43:03;;;;;;;1999.90;999.90;;;15.10;99.90;;;;;;5024728;28;20064;-78
2022/08/31 07:45:29;;;;;;;1968.75;947.63;;;15.20;99.90;;;;;;5029086;28;20037;-79
2022/08/31 07:47:56;;;;;;;1669.47;881.75;;;15.30;99.90;;;;;;5022774;28;20075;-78
2022/08/31 07:50:23;;;;;;;1999.90;999.90;;;15.10;99.90;;;;;;5024076;28;20025;-78
2022/08/31 07:52:52;;;;;;;1999.90;999.90;;;15.20;99.90;;;;;;5027202;28;20034;-78
2022/08/31 07:55:20;;;;;;;1999.90;999.90;;;15.10;99.90;;;;;;5026227;28;20090;-78
2022/08/31 07:57:46;;;;;;;1999.90;999.90;;;15.20;99.90;;;;;;5028448;28;20068;-78
2022/08/31 08:00:19;;;;;;;1999.90;999.90;;;15.30;99.90;;;;;;5032765;28;20072;-78
2022/08/31 08:02:45;;;;;;;1999.90;999.90;;;15.30;99.90;;;;;;5032205;28;20125;-78
2022/08/31 08:05:19;;;;;;;1999.90;999.90;;;15.20;99.90;;;;;;5029790;28;20038;-78
2022/08/31 08:07:47;;;;;;;1999.90;999.90;;;15.40;99.90;;;;;;5029562;28;20126;-77
2022/08/31 08:10:14;;;;;;;1999.90;999.90;;;15.30;99.90;;;;;;5021874;28;20029;-78
2022/08/31 08:12:42;;;;;;;1999.90;999.90;;;15.40;99.90;;;;;;5024346;28;20080;-78
2022/08/31 08:15:09;;;;;;;1999.90;999.90;;;15.50;99.90;;;;;;5030129;28;20033;-78
2022/08/31 08:17:35;;;;;;;1999.90;999.90;;;15.40;99.90;;;;;;5029196;28;20112;-78
2022/08/31 08:20:01;;;;;;;1999.90;999.90;;;15.60;99.90;;;;;;5027820;28;20032;-78
2022/08/31 08:22:27;;;;;;;1999.90;999.90;;;15.70;99.90;;;;;;5027992;28;20041;-78
2022/08/31 08:24:54;;;;;;;1999.90;999.90;;;15.50;99.90;;;;;;5024671;28;20024;-78
2022/08/31 08:27:19;;;;;;;1999.90;999.90;;;15.60;99.90;;;;;;5021167;28;20026;-78
2022/08/31 08:29:45;;;;;;;1999.90;999.90;;;15.60;99.90;;;;;;5028311;28;20041;-78
2022/08/31 08:32:11;;;;;;;1999.90;999.90;;;15.70;99.90;;;;;;5028028;28;20534;-78
2022/08/31 08:34:42;;;;;;;1999.90;999.90;;;15.80;99.90;;;;;;5027336;28;20598;-78
2022/08/31 08:37:09;;;;;;;1999.90;999.90;;;15.80;99.90;;;;;;5028381;28;20057;-78
2022/08/31 08:39:36;;;;;;;1999.90;999.90;;;15.80;99.90;;;;;;5029469;28;20050;-78
2022/08/31 08:42:03;;;;;;;1999.90;999.90;;;15.90;99.90;;;;;;5031924;28;20025;-79
2022/08/31 08:44:31;;;;;;;1999.90;999.90;;;15.90;99.90;;;;;;5029448;28;20060;-77
2022/08/31 08:47:04;;;;;;;1999.90;999.90;;;15.80;99.90;;;;;;5025230;28;20112;-78
2022/08/31 08:49:51;;;;;;;1999.90;999.90;;;15.80;99.90;;;;;;5005692;28;20033;-78
2022/08/31 08:52:29;;;;;;;1999.90;999.90;;;15.70;99.90;;;;;;5016924;28;20033;-78
2022/08/31 08:55:02;;;;;;;1999.90;999.90;;;15.80;99.90;;;;;;5047400;28;20116;-78
2022/08/31 08:57:37;;;;;;;1999.90;999.90;;;15.70;99.90;;;;;;5032269;28;20068;-78
2022/08/31 09:00:09;;;;;;;1999.90;999.90;;;15.90;99.90;;;;;;5024349;28;20096;-78
2022/08/31 09:02:35;;;;;;;1999.90;999.90;;;16.00;99.90;;;;;;5027287;28;20038;-78
2022/08/31 09:05:23;;;;;;;1999.90;999.90;;;15.90;99.90;;;;;;5025896;28;20079;-77
2022/08/31 09:07:53;;;;;;;1999.90;999.90;;;16.00;99.90;;;;;;5022663;28;20021;-77
2022/08/31 09:10:21;;;;;;;1999.90;999.90;;;16.00;99.90;;;;;;5026519;28;20052;-78
2022/08/31 09:13:08;;;;;;;1999.90;999.90;;;16.10;99.90;;;;;;5020870;28;20037;-77
2022/08/31 09:15:51;;;;;;;1525.25;650.40;;;16.30;99.90;;;;;;5027519;28;20040;-77
2022/08/31 09:18:44;;;;;;;1999.90;999.90;;;16.20;99.90;;;;;;5030329;28;20645;-77
2022/08/31 09:21:29;;;;;;;1999.90;999.90;;;16.40;99.90;;;;;;5031512;28;20577;-77
2022/08/31 09:24:29;;;;;;;1999.90;999.90;;;16.60;99.90;;;;;;5024378;28;20028;-77
2022/08/31 09:27:19;;;;;;;1999.90;999.90;;;16.50;99.90;;;;;;4979218;28;20060;-78
2022/08/31 09:30:00;;;;;;;1788.50;999.90;;;16.50;99.90;;;;;;5030199;28;20132;-78
2022/08/31 09:32:33;;;;;;;1759.82;869.28;;;16.50;99.90;;;;;;5026889;28;20041;-78
2022/08/31 09:35:39;;;;;;;1999.90;999.90;;;16.50;99.90;;;;;;5029745;28;20044;-78
2022/08/31 09:38:09;;;;;;;1686.80;869.47;;;16.50;99.90;;;;;;5018653;28;20144;-77
2022/08/31 09:40:43;;;;;;;;;;;16.40;99.90;;;;;;5026726;28;20386;-76
2022/08/31 09:43:22;;;;;;;988.05;837.03;;;16.40;99.90;;;;;;5029374;28;19917;-77
2022/08/31 09:46:10;;;;;;;1885.68;999.90;;;16.50;99.90;;;;;;5024417;28;20048;-77
2022/08/31 09:48:48;;;;;;;1820.88;962.15;;;16.30;99.90;;;;;;5027618;28;20026;-77
2022/08/31 09:51:32;;;;;;;1900.95;987.75;;;16.40;99.90;;;;;;5027383;28;20061;-77
2022/08/31 09:57:06;;;;;;;1272.22;924.45;;;16.40;99.90;;;;;;5022653;28;20041;-77
2022/08/31 09:59:44;;;;;;;1651.97;966.55;;;16.40;99.90;;;;;;5030552;28;20079;-78
2022/08/31 10:02:32;;;;;;;1653.18;999.90;;;16.20;99.90;;;;;;5028081;28;20053;-77
2022/08/31 10:05:05;;;;;;;1999.90;999.90;;;16.20;99.90;;;;;;5023520;28;20120;-77
2022/08/31 10:07:44;;;;;;;1837.90;951.90;;;16.40;99.90;;;;;;5030248;28;20044;-77
2022/08/31 10:10:23;;;;;;;1533.50;914.13;;;16.40;99.90;;;;;;5026810;28;20026;-77
2022/08/31 10:13:11;;;;;;;1999.90;999.90;;;16.40;99.90;;;;;;5028093;28;20065;-77
2022/08/31 10:15:49;;;;;;;1928.15;962.65;;;16.40;99.90;;;;;;5024645;28;20056;-77
2022/08/31 10:18:42;;;;;;;1999.90;999.90;;;16.50;99.90;;;;;;5023284;28;20068;-77
2022/08/31 10:21:20;;;;;;;1033.68;906.55;;;16.50;99.90;;;;;;5028444;28;20051;-77
2022/08/31 10:24:07;;;;;;;1190.18;919.42;;;16.50;99.90;;;;;;5025374;28;20080;-78
2022/08/31 10:26:39;;;;;;;1999.90;999.90;;;16.50;99.90;;;;;;5030739;28;20022;-78
2022/08/31 10:29:17;;;;;;;1999.90;999.90;;;16.60;99.90;;;;;;5024786;28;20025;-78
2022/08/31 10:31:46;;;;;;;1999.90;999.90;;;16.80;99.90;;;;;;5027796;28;20520;-77
2022/08/31 10:37:32;;;;;;;1684.50;900.42;;;16.90;99.90;;;;;;5023728;28;20135;-77
2022/08/31 10:40:06;;;;;;;878.22;727.38;;;16.70;99.90;;;;;;5027758;28;20069;-77
2022/08/31 10:42:43;;;;;;;1231.32;909.13;;;16.70;99.90;;;;;;5027679;28;20029;-78
2022/08/31 10:45:23;;;;;;;971.60;824.05;;;16.60;99.90;;;;;;5025981;28;20040;-78
2022/08/31 10:47:52;;;;;;;1522.60;955.70;;;16.50;99.90;;;;;;5028446;28;20408;-77
2022/08/31 10:50:32;;;;;;;1355.82;888.72;;;16.60;99.90;;;;;;5025394;28;20116;-77
2022/08/31 10:53:07;;;;;;;1409.85;849.40;;;16.70;99.90;;;;;;5021047;28;20314;-78
2022/08/31 10:55:52;;;;;;;1999.90;999.90;;;16.60;99.90;;;;;;5021454;28;20034;-77
2022/08/31 10:58:48;;;;;;;1069.68;840.40;;;16.70;99.90;;;;;;5020313;28;20469;-77
2022/08/31 11:01:23;;;;;;;1630.60;985.85;;;16.80;99.90;;;;;;5024773;28;20037;-77
2022/08/31 11:03:54;;;;;;;719.70;662.90;;;17.00;99.90;;;;;;5044505;28;20085;-77
2022/08/31 11:06:43;;;;;;;1836.05;985.72;;;17.10;99.90;;;;;;5022154;28;20077;-78
2022/08/31 11:09:23;;;;;;;1373.05;941.35;;;17.10;99.90;;;;;;5021889;28;20041;-77
2022/08/31 11:12:14;;;;;;;1447.47;946.95;;;17.40;99.90;;;;;;5015109;28;20136;-77
2022/08/31 11:14:57;;;;;;;852.80;772.80;;;17.40;99.90;;;;;;5028096;28;20040;-77
2022/08/31 11:17:48;;;;;;;938.78;829.00;;;17.40;99.90;;;;;;5043556;28;20105;-77
2022/08/31 11:20:28;;;;;;;1351.88;952.63;;;17.40;99.90;;;;;;5022645;28;20435;-77
2022/08/31 11:23:00;;;;;;;1008.77;925.30;;;17.40;99.90;;;;;;5030358;28;20022;-77
2022/08/31 11:26:05;;;;;;;833.13;757.22;;;17.50;99.90;;;;;;5022707;28;20022;-78
2022/08/31 11:28:37;;;;;;;1098.95;894.40;;;17.40;99.90;;;;;;4973387;28;20041;-78
2022/08/31 11:31:18;;;;;;;819.35;748.53;;;17.50;99.90;;;;;;5014132;28;20437;-77
2022/08/31 11:33:50;;;;;;;1210.70;899.78;;;17.50;99.90;;;;;;5020490;28;20029;-77
2022/08/31 11:36:53;;;;;;;775.50;713.40;;;17.60;99.90;;;;;;5021414;28;20028;-77
2022/08/31 11:39:34;;;;;;;655.92;613.72;;;17.90;99.90;;;;;;5020538;28;20048;-79
2022/08/31 11:42:25;;;;;;;498.27;468.65;;;18.30;99.90;;;;;;5026194;28;20045;-78
2022/08/31 11:45:25;;;;;;;835.93;770.33;;;18.30;99.90;;;;;;5018243;28;20038;-78
2022/08/31 11:47:53;;;;;;;857.35;793.72;;;18.50;99.90;;;;;;5023653;28;20034;-78
2022/08/31 11:50:22;;;;;;;1070.78;896.42;;;18.20;99.90;;;;;;5015802;28;20030;-78
2022/08/31 11:52:52;;;;;;;1086.95;934.10;;;18.20;99.90;;;;;;5024218;28;20170;-78
2022/08/31 11:55:44;;;;;;;1108.45;937.00;;;18.50;99.90;;;;;;5027524;28;20030;-78
2022/08/31 11:58:21;;;;;;;235.10;224.88;;;18.80;99.90;;;;;;5013440;28;20049;-79
2022/08/31 12:00:50;;;;;;;736.28;685.10;;;18.60;99.90;;;;;;5024886;28;20504;-90
2022/08/31 12:03:33;;;;;;;637.88;594.17;;;18.50;99.90;;;;;;5017290;28;20778;-92
2022/08/31 12:05:59;;;;;;;646.65;602.97;;;18.40;99.90;;;;;;5014744;28;20033;-92
2022/08/31 12:08:33;;;;;;;583.30;547.00;;;18.60;99.90;;;;;;5006368;28;20052;-92
2022/08/31 12:11:19;;;;;;;931.58;843.03;;;18.30;99.90;;;;;;4998414;28;20092;-89
2022/08/31 12:14:00;;;;;;;856.92;783.50;;;18.20;99.90;;;;;;5023860;28;20033;-84
2022/08/31 12:16:45;;;;;;;406.40;387.92;;;18.40;99.90;;;;;;5024588;28;20029;-78
2022/08/31 12:25:25;;;;;;;139.50;132.05;;;18.50;99.90;;;;;;5028792;28;20049;-78
2022/08/31 12:28:09;;;;;;;349.35;331.77;;;18.20;99.90;;;;;;5024071;28;20026;-78
2022/08/31 12:30:35;;;;;;;560.17;528.58;;;18.30;99.90;;;;;;5023572;28;20053;-78
2022/08/31 12:33:10;;;;;;;576.95;543.47;;;18.50;99.90;;;;;;5018107;28;20056;-78
2022/08/31 12:35:36;;;;;;;372.05;353.80;;;18.70;99.90;;;;;;5022363;28;20056;-78
2022/08/31 12:38:05;;;;;;;650.42;609.15;;;18.80;99.90;;;;;;5028506;28;20021;-78
2022/08/31 12:40:34;;;;;;;487.92;462.13;;;19.40;99.90;;;;;;5025890;28;20049;-78
2022/08/31 12:43:21;;;;;;;365.10;347.33;;;20.40;99.90;;;;;;5028749;28;20571;-78
2022/08/31 12:46:12;;;;;;;175.70;168.15;;;21.80;99.90;;;;;;5030004;28;20033;-78
2022/08/31 12:48:45;;;;;;;;;;;22.30;99.90;;;;;;5027933;28;20124;-78
2022/08/31 12:51:20;;;;;;;40.25;37.53;;;22.40;99.90;;;;;;5030766;28;19916;-78
2022/08/31 12:54:14;;;;;;;79.03;75.15;;;23.50;99.90;;;;;;5029471;28;20034;-78